createdAt,value
2023-04-16T00:01:45.622Z,18.27
2023-04-16T00:04:14.472Z,18.57
2023-04-16T00:06:43.327Z,18.83
2023-04-16T00:09:12.123Z,17.80
2023-04-16T00:11:42.343Z,18.23
2023-04-16T00:14:11.238Z,20.17
2023-04-16T00:16:40.198Z,18.77
2023-04-16T00:19:09.141Z,19.57
2023-04-16T00:21:38.073Z,19.10
2023-04-16T00:24:06.722Z,21.07
2023-04-16T00:26:35.585Z,20.87
2023-04-16T00:29:05.594Z,20.20
2023-04-16T00:31:35.502Z,20.80
2023-04-16T00:34:05.663Z,19.37
2023-04-16T00:36:34.541Z,19.90
2023-04-16T00:39:03.312Z,19.73
2023-04-16T00:41:32.087Z,20.30
2023-04-16T00:44:00.998Z,18.80
2023-04-16T00:46:31.463Z,18.80
2023-04-16T00:49:02.165Z,19.57
2023-04-16T00:51:31.909Z,19.90
2023-04-16T00:54:01.070Z,18.90
2023-04-16T00:56:30.373Z,18.83
2023-04-16T00:58:59.058Z,19.50
2023-04-16T01:01:28.293Z,18.27
2023-04-16T01:03:58.718Z,19.27
2023-04-16T01:06:29.344Z,20.60
2023-04-16T01:08:58.112Z,19.83
2023-04-16T01:11:27.005Z,18.37
2023-04-16T01:13:55.772Z,20.90
2023-04-16T01:16:24.588Z,19.33
2023-04-16T01:18:53.174Z,19.20
2023-04-16T01:21:23.159Z,19.67
2023-04-16T01:23:51.863Z,20.30
2023-04-16T01:26:20.733Z,19.83
2023-04-16T01:28:49.668Z,19.77
2023-04-16T01:31:18.358Z,21.53
2023-04-16T01:34:22.575Z,21.03
2023-04-16T01:36:52.940Z,20.43
2023-04-16T01:39:21.635Z,21.17
2023-04-16T01:41:50.254Z,19.57
2023-04-16T01:44:18.846Z,20.87
2023-04-16T01:46:48.131Z,20.23
2023-04-16T01:49:17.253Z,19.70
2023-04-16T01:51:46.475Z,19.83
2023-04-16T01:54:17.215Z,19.47
2023-04-16T01:56:46.173Z,20.43
2023-04-16T01:59:15.215Z,21.23
2023-04-16T02:01:44.417Z,20.30
2023-04-16T02:04:14.129Z,19.87
2023-04-16T02:06:42.853Z,21.07
2023-04-16T02:09:11.516Z,21.83
2023-04-16T02:11:42.843Z,20.90
2023-04-16T02:14:11.678Z,19.23
2023-04-16T02:16:40.412Z,21.33
2023-04-16T02:19:15.072Z,22.50
2023-04-16T02:21:44.586Z,21.37
2023-04-16T02:24:13.396Z,22.30
2023-04-16T02:26:45.155Z,22.30
2023-04-16T02:29:17.512Z,23.55
2023-04-16T02:31:52.766Z,21.30
2023-04-16T02:34:21.650Z,23.23
2023-04-16T02:36:50.914Z,22.53
2023-04-16T02:39:20.062Z,23.30
2023-04-16T02:41:50.023Z,23.07
2023-04-16T02:44:18.995Z,24.27
2023-04-16T02:46:49.251Z,23.10
2023-04-16T02:49:18.240Z,21.63
2023-04-16T02:51:46.830Z,23.03
2023-04-16T02:54:15.585Z,23.43
2023-04-16T02:56:44.215Z,23.30
2023-04-16T02:59:14.346Z,23.93
2023-04-16T03:01:43.170Z,23.57
2023-04-16T03:04:11.938Z,23.37
2023-04-16T03:06:40.992Z,24.83
2023-04-16T03:09:10.296Z,23.77
2023-04-16T03:11:39.180Z,23.07
2023-04-16T03:14:07.917Z,23.77
2023-04-16T03:16:38.020Z,23.47
2023-04-16T03:19:06.760Z,24.13
2023-04-16T03:21:35.917Z,23.20
2023-04-16T03:24:04.593Z,23.83
2023-04-16T03:26:33.473Z,24.60
2023-04-16T03:29:03.262Z,23.43
2023-04-16T03:31:33.321Z,23.57
2023-04-16T03:34:05.037Z,24.47
2023-04-16T03:36:34.363Z,24.37
2023-04-16T03:39:03.171Z,22.97
2023-04-16T03:41:32.256Z,23.17
2023-04-16T03:44:01.112Z,23.63
2023-04-16T03:46:29.980Z,22.63
2023-04-16T03:48:59.440Z,23.57
2023-04-16T03:51:29.603Z,23.53
2023-04-16T03:53:58.423Z,24.90
2023-04-16T03:56:31.306Z,22.43
2023-04-16T03:59:00.240Z,23.60
2023-04-16T04:01:29.227Z,23.77
2023-04-16T04:03:58.281Z,23.60
2023-04-16T04:06:28.802Z,23.90
2023-04-16T04:08:57.624Z,23.13
2023-04-16T04:11:26.988Z,23.97
2023-04-16T04:13:56.777Z,24.03
2023-04-16T04:16:25.825Z,24.63
2023-04-16T04:18:55.681Z,24.53
2023-04-16T04:21:24.932Z,24.30
2023-04-16T04:23:56.137Z,22.97
2023-04-16T04:26:24.981Z,24.40
2023-04-16T04:28:53.443Z,23.43
2023-04-16T04:31:22.177Z,26.00
2023-04-16T04:33:50.915Z,23.43
2023-04-16T04:36:20.724Z,23.30
2023-04-16T04:38:49.960Z,23.43
2023-04-16T04:41:21.399Z,23.07
2023-04-16T04:43:50.083Z,24.27
2023-04-16T04:46:19.306Z,23.50
2023-04-16T04:48:48.354Z,22.67
2023-04-16T04:51:18.692Z,22.47
2023-04-16T04:53:48.837Z,22.03
2023-04-16T04:56:17.503Z,22.77
2023-04-16T04:58:47.435Z,23.50
2023-04-16T05:01:16.412Z,23.77
2023-04-16T05:03:45.330Z,23.83
2023-04-16T05:06:14.174Z,23.47
2023-04-16T05:08:42.988Z,25.00
2023-04-16T05:11:11.971Z,22.90
2023-04-16T05:13:40.648Z,22.50
2023-04-16T05:16:11.020Z,25.27
2023-04-16T05:18:39.584Z,23.57
2023-04-16T05:21:08.132Z,23.27
2023-04-16T05:23:37.053Z,23.90
2023-04-16T05:26:05.741Z,24.17
2023-04-16T05:28:34.328Z,24.70
2023-04-16T05:31:02.857Z,22.83
2023-04-16T05:33:32.848Z,22.50
2023-04-16T05:36:01.529Z,22.77
2023-04-16T05:38:30.318Z,22.17
2023-04-16T05:41:00.023Z,21.27
2023-04-16T05:43:29.102Z,21.50
2023-04-16T05:45:58.499Z,23.23
2023-04-16T05:48:27.279Z,22.53
2023-04-16T05:50:57.598Z,22.93
2023-04-16T05:53:26.401Z,21.83
2023-04-16T05:55:55.342Z,22.10
2023-04-16T05:58:24.254Z,20.67
2023-04-16T06:00:53.096Z,20.30
2023-04-16T06:03:21.801Z,22.73
2023-04-16T06:05:50.531Z,22.23
2023-04-16T06:08:20.657Z,19.70
2023-04-16T06:10:49.257Z,22.20
2023-04-16T06:13:18.265Z,20.43
2023-04-16T06:15:47.245Z,19.07
2023-04-16T06:18:16.068Z,20.60
2023-04-16T06:20:44.738Z,19.93
2023-04-16T06:23:13.377Z,17.60
2023-04-16T06:25:43.479Z,19.97
2023-04-16T06:28:12.024Z,19.60
2023-04-16T06:30:43.366Z,19.13
2023-04-16T06:33:13.859Z,18.10
2023-04-16T06:35:42.547Z,17.83
2023-04-16T06:38:11.462Z,17.43
2023-04-16T06:40:40.005Z,16.70
2023-04-16T06:43:10.072Z,17.97
2023-04-16T06:45:38.663Z,17.60
2023-04-16T06:48:07.718Z,16.53
2023-04-16T06:50:36.453Z,16.83
2023-04-16T06:53:05.120Z,17.33
2023-04-16T06:55:33.578Z,15.80
2023-04-16T06:58:02.225Z,16.17
2023-04-16T07:00:32.246Z,16.07
2023-04-16T07:03:03.397Z,15.60
2023-04-16T07:05:32.937Z,16.27
2023-04-16T07:08:01.615Z,16.53
2023-04-16T07:10:30.669Z,14.93
2023-04-16T07:13:01.600Z,15.50
2023-04-16T07:15:31.819Z,15.00
2023-04-16T07:18:00.977Z,15.33
2023-04-16T07:20:29.744Z,15.10
2023-04-16T07:22:59.392Z,15.93
2023-04-16T07:25:28.159Z,14.47
2023-04-16T07:27:57.175Z,14.23
2023-04-16T07:30:25.747Z,13.47
2023-04-16T07:32:56.146Z,12.80
2023-04-16T07:35:24.911Z,14.33
2023-04-16T07:37:53.529Z,14.07
2023-04-16T07:40:22.238Z,13.20
2023-04-16T07:42:50.895Z,14.03
2023-04-16T07:45:19.830Z,14.10
2023-04-16T07:47:48.548Z,12.80
2023-04-16T07:50:19.547Z,13.73
2023-04-16T07:52:48.587Z,13.83
2023-04-16T07:55:17.850Z,13.70
2023-04-16T07:57:46.521Z,13.60
2023-04-16T08:00:15.786Z,13.17
2023-04-16T08:02:45.232Z,14.07
2023-04-16T08:05:14.499Z,13.67
2023-04-16T08:07:44.511Z,13.70
2023-04-16T08:10:13.700Z,13.70
2023-04-16T08:12:42.412Z,13.00
2023-04-16T08:15:12.340Z,12.57
2023-04-16T08:17:41.267Z,12.70
2023-04-16T08:20:13.043Z,12.60
2023-04-16T08:22:46.177Z,11.47
2023-04-16T08:25:16.304Z,12.37
2023-04-16T08:27:44.993Z,12.00
2023-04-16T08:30:13.969Z,11.37
2023-04-16T08:32:42.791Z,11.70
2023-04-16T08:35:11.772Z,11.77
2023-04-16T08:37:40.772Z,11.30
2023-04-16T08:40:11.686Z,11.67
2023-04-16T08:42:42.567Z,11.87
2023-04-16T08:45:15.898Z,11.70
2023-04-16T08:47:47.698Z,11.13
2023-04-16T08:50:16.423Z,11.20
2023-04-16T08:52:48.305Z,11.63
2023-04-16T08:55:20.817Z,10.13
2023-04-16T08:57:53.582Z,10.70
2023-04-16T09:00:22.272Z,12.00
2023-04-16T09:02:52.248Z,11.53
2023-04-16T09:05:25.753Z,11.50
2023-04-16T09:07:55.583Z,11.37
2023-04-16T09:10:27.076Z,11.30
2023-04-16T09:12:57.636Z,11.13
2023-04-16T09:15:26.753Z,10.37
2023-04-16T09:17:56.965Z,10.57
2023-04-16T09:20:26.182Z,9.97
2023-04-16T09:22:57.024Z,10.33
2023-04-16T09:25:27.134Z,9.93
2023-04-16T09:27:56.350Z,10.23
2023-04-16T09:30:27.252Z,10.83
2023-04-16T09:33:16.775Z,10.13
2023-04-16T09:35:49.773Z,9.23
2023-04-16T09:38:18.952Z,9.53
2023-04-16T09:40:49.158Z,9.10
2023-04-16T09:43:18.899Z,8.50
2023-04-16T09:45:51.872Z,8.43
2023-04-16T09:48:31.077Z,9.47
2023-04-16T09:50:59.673Z,8.73
2023-04-16T09:53:29.197Z,9.70
2023-04-16T09:55:59.815Z,10.33
2023-04-16T09:58:29.194Z,8.50
2023-04-16T10:00:58.899Z,9.23
2023-04-16T10:03:31.989Z,8.97
2023-04-16T10:06:03.189Z,8.93
2023-04-16T10:08:32.057Z,9.60
2023-04-16T10:11:05.663Z,9.00
2023-04-16T10:13:34.263Z,8.60
2023-04-16T10:16:03.175Z,8.50
2023-04-16T10:18:32.045Z,9.23
2023-04-16T10:21:00.828Z,8.33
2023-04-16T10:23:29.622Z,8.83
2023-04-16T10:25:59.733Z,8.13
2023-04-16T10:28:30.159Z,8.37
2023-04-16T10:30:59.876Z,8.43
2023-04-16T10:33:30.995Z,8.97
2023-04-16T10:36:10.837Z,9.23
2023-04-16T10:38:43.627Z,9.73
2023-04-16T10:41:12.187Z,9.23
2023-04-16T10:43:44.143Z,8.60
2023-04-16T10:46:23.624Z,8.80
2023-04-16T10:48:54.045Z,8.30
2023-04-16T10:51:28.138Z,8.30
2023-04-16T10:53:57.739Z,7.67
2023-04-16T10:56:27.679Z,8.77
2023-04-16T10:58:57.669Z,8.33
2023-04-16T11:01:37.149Z,7.80
2023-04-16T11:04:30.419Z,9.00
2023-04-16T11:07:17.126Z,7.63
2023-04-16T11:09:57.611Z,7.93
2023-04-16T11:12:29.099Z,9.13
2023-04-16T11:15:02.951Z,8.80
2023-04-16T11:17:39.251Z,9.53
2023-04-16T11:20:19.661Z,7.87
2023-04-16T11:22:49.795Z,9.13
2023-04-16T11:25:22.169Z,7.87
2023-04-16T11:27:51.418Z,8.87
2023-04-16T11:30:30.180Z,8.67
2023-04-16T11:32:58.977Z,8.47
2023-04-16T11:35:27.942Z,8.40
2023-04-16T11:37:58.094Z,8.10
2023-04-16T11:40:27.566Z,8.93
2023-04-16T11:42:57.255Z,7.80
2023-04-16T11:45:28.452Z,9.27
2023-04-16T11:47:58.042Z,8.37
2023-04-16T11:50:28.172Z,8.40
2023-04-16T11:52:57.985Z,8.77
2023-04-16T11:55:26.754Z,7.90
2023-04-16T11:57:55.698Z,8.70
2023-04-16T12:00:25.014Z,8.60
2023-04-16T12:02:56.171Z,8.67
2023-04-16T12:05:30.628Z,8.00
2023-04-16T12:07:59.570Z,7.63
2023-04-16T12:10:29.721Z,8.53
2023-04-16T12:13:11.942Z,8.87
2023-04-16T12:15:50.712Z,8.43
2023-04-16T12:18:22.596Z,9.17
2023-04-16T12:20:51.935Z,8.90
2023-04-16T12:23:27.987Z,9.07
2023-04-16T12:25:59.744Z,9.00
2023-04-16T12:28:31.244Z,8.70
2023-04-16T12:31:00.270Z,7.97
2023-04-16T12:33:30.958Z,8.63
2023-04-16T12:35:59.994Z,8.70
2023-04-16T12:38:29.397Z,8.57
2023-04-16T12:40:58.503Z,9.03
2023-04-16T12:43:27.637Z,8.27
2023-04-16T12:45:56.278Z,8.20
2023-04-16T12:48:24.958Z,9.00
2023-04-16T12:50:56.385Z,9.27
2023-04-16T12:53:25.295Z,8.20
2023-04-16T12:55:54.102Z,8.00
2023-04-16T12:58:22.763Z,8.43
2023-04-16T13:00:51.675Z,8.20
2023-04-16T13:03:21.027Z,9.10
2023-04-16T13:05:49.870Z,8.27
2023-04-16T13:08:19.762Z,8.63
2023-04-16T13:10:48.342Z,8.60
2023-04-16T13:13:16.957Z,8.70
2023-04-16T13:15:45.542Z,8.57
2023-04-16T13:18:14.120Z,9.47
2023-04-16T13:20:42.770Z,9.03
2023-04-16T13:23:11.822Z,9.73
2023-04-16T13:25:42.222Z,9.23
2023-04-16T13:28:11.117Z,9.90
2023-04-16T13:30:40.219Z,10.17
2023-04-16T13:33:10.115Z,9.93
2023-04-16T13:35:38.939Z,8.60
2023-04-16T13:38:07.628Z,8.77
2023-04-16T13:40:36.516Z,8.03
2023-04-16T13:43:07.802Z,8.57
2023-04-16T13:45:36.406Z,8.83
2023-04-16T13:48:05.512Z,8.53
2023-04-16T13:50:35.198Z,8.97
2023-04-16T13:53:03.801Z,8.40
2023-04-16T13:55:33.133Z,8.00
2023-04-16T13:58:02.125Z,8.60
2023-04-16T14:00:32.246Z,7.23
2023-04-16T14:03:01.700Z,7.10
2023-04-16T14:05:30.692Z,7.33
2023-04-16T14:07:59.315Z,7.07
2023-04-16T14:10:28.169Z,7.17
2023-04-16T14:12:56.634Z,8.13
2023-04-16T14:15:27.504Z,7.77
2023-04-16T14:17:57.768Z,8.27
2023-04-16T14:20:26.433Z,8.27
2023-04-16T14:22:55.120Z,7.47
2023-04-16T14:25:23.874Z,8.17
2023-04-16T14:27:52.566Z,8.27
2023-04-16T14:30:21.322Z,7.83
2023-04-16T14:32:50.335Z,8.30
2023-04-16T14:35:21.056Z,8.73
2023-04-16T14:37:49.693Z,8.60
2023-04-16T14:40:18.449Z,8.70
2023-04-16T14:42:47.145Z,8.50
2023-04-16T14:45:16.207Z,8.73
2023-04-16T14:47:48.006Z,8.47
2023-04-16T14:50:16.931Z,8.60
2023-04-16T14:52:47.009Z,8.77
2023-04-16T14:55:15.732Z,8.83
2023-04-16T14:57:44.409Z,9.10
2023-04-16T15:00:17.313Z,9.23
2023-04-16T15:02:47.233Z,9.13
2023-04-16T15:05:16.084Z,9.83
2023-04-16T15:07:46.223Z,9.20
2023-04-16T15:10:15.016Z,9.40
2023-04-16T15:12:43.595Z,9.97
2023-04-16T15:15:12.904Z,10.13
2023-04-16T15:17:41.698Z,10.47
2023-04-16T15:20:11.995Z,9.50
2023-04-16T15:22:41.271Z,9.43
2023-04-16T15:25:11.656Z,10.30
2023-04-16T15:27:40.360Z,10.60
2023-04-16T15:30:10.083Z,9.90
2023-04-16T15:32:39.131Z,10.40
2023-04-16T15:35:09.844Z,10.73
2023-04-16T15:37:40.051Z,10.37
2023-04-16T15:40:11.121Z,10.50
2023-04-16T15:42:40.607Z,10.63
2023-04-16T15:45:09.830Z,9.87
2023-04-16T15:47:40.891Z,10.07
2023-04-16T15:50:10.346Z,10.10
2023-04-16T15:52:39.481Z,10.23
2023-04-16T15:55:08.805Z,9.67
2023-04-16T15:57:39.209Z,10.40
2023-04-16T16:00:13.824Z,9.70
2023-04-16T16:02:43.031Z,9.73
2023-04-16T16:05:13.455Z,9.03
2023-04-16T16:07:42.508Z,9.23
2023-04-16T16:10:13.450Z,10.33
2023-04-16T16:12:43.578Z,10.03
2023-04-16T16:15:12.336Z,10.00
2023-04-16T16:17:41.318Z,10.03
2023-04-16T16:20:12.944Z,10.13
2023-04-16T16:22:45.264Z,9.93
2023-04-16T16:25:14.403Z,9.63
2023-04-16T16:27:44.633Z,9.83
2023-04-16T16:30:14.214Z,9.83
2023-04-16T16:32:44.509Z,10.93
2023-04-16T16:35:13.670Z,9.60
2023-04-16T16:37:42.332Z,10.20
2023-04-16T16:40:12.013Z,10.03
2023-04-16T16:42:41.061Z,9.97
2023-04-16T16:45:12.393Z,10.50
2023-04-16T16:47:41.104Z,11.23
2023-04-16T16:50:11.796Z,11.50
2023-04-16T16:52:40.455Z,12.20
2023-04-16T16:55:11.087Z,11.83
2023-04-16T16:57:40.042Z,11.80
2023-04-16T17:00:16.242Z,10.97
2023-04-16T17:02:45.194Z,11.80
2023-04-16T17:05:14.258Z,11.07
2023-04-16T17:07:43.051Z,12.33
2023-04-16T17:10:13.394Z,10.87
2023-04-16T17:12:42.114Z,11.07
2023-04-16T17:15:13.327Z,11.47
2023-04-16T17:17:42.141Z,11.33
2023-04-16T17:20:12.506Z,11.17
2023-04-16T17:22:41.512Z,12.07
2023-04-16T17:25:10.685Z,11.40
2023-04-16T17:27:42.007Z,9.60
2023-04-16T17:30:12.726Z,9.43
2023-04-16T17:32:41.604Z,9.27
2023-04-16T17:35:11.190Z,9.63
2023-04-16T17:37:39.890Z,10.30
2023-04-16T17:40:10.118Z,9.87
2023-04-16T17:42:39.633Z,10.43
2023-04-16T17:45:09.446Z,10.17
2023-04-16T17:47:39.454Z,9.93
2023-04-16T17:50:09.058Z,9.23
2023-04-16T17:52:38.328Z,10.50
2023-04-16T17:55:07.819Z,10.43
2023-04-16T17:57:36.558Z,10.17
2023-04-16T18:00:09.598Z,10.30
2023-04-16T18:02:41.881Z,10.20
2023-04-16T18:05:11.691Z,11.07
2023-04-16T18:07:40.457Z,11.13
2023-04-16T18:10:10.699Z,10.57
2023-04-16T18:12:39.573Z,11.07
2023-04-16T18:15:09.320Z,11.07
2023-04-16T18:17:38.413Z,10.97
2023-04-16T18:20:11.917Z,11.10
2023-04-16T18:22:40.511Z,11.47
2023-04-16T18:25:09.921Z,11.17
2023-04-16T18:27:38.986Z,12.07
2023-04-16T18:32:46.808Z,11.30
2023-04-16T18:35:25.040Z,11.13
2023-04-16T18:37:53.892Z,12.33
2023-04-16T18:40:22.739Z,11.97
2023-04-16T18:42:51.779Z,11.67
2023-04-16T18:45:21.967Z,12.00
2023-04-16T18:47:50.930Z,12.37
2023-04-16T18:50:19.785Z,12.00
2023-04-16T18:52:49.889Z,11.73
2023-04-16T18:55:18.732Z,11.53
2023-04-16T18:57:47.374Z,12.87
2023-04-16T19:00:16.659Z,12.00
2023-04-16T19:02:45.499Z,11.57
2023-04-16T19:05:14.506Z,13.17
2023-04-16T19:07:43.177Z,12.33
2023-04-16T19:10:13.503Z,12.53
2023-04-16T19:12:42.411Z,11.60
2023-04-16T19:15:12.119Z,13.33
2023-04-16T19:17:40.792Z,11.90
2023-04-16T19:20:11.624Z,11.80
2023-04-16T19:22:40.834Z,12.03
2023-04-16T19:25:11.003Z,12.63
2023-04-16T19:27:41.595Z,12.87
2023-04-16T19:30:11.513Z,13.27
2023-04-16T19:32:40.625Z,12.93
2023-04-16T19:35:10.071Z,12.80
2023-04-16T19:37:38.879Z,12.30
2023-04-16T19:40:10.009Z,11.50
2023-04-16T19:42:40.216Z,13.17
2023-04-16T19:45:09.742Z,12.73
2023-04-16T19:47:38.733Z,13.33
2023-04-16T19:50:08.675Z,12.87
2023-04-16T19:52:39.190Z,13.10
2023-04-16T19:55:08.994Z,12.53
2023-04-16T19:57:37.698Z,12.13
2023-04-16T20:00:11.598Z,11.57
2023-04-16T20:02:40.846Z,11.77
2023-04-16T20:05:10.705Z,12.43
2023-04-16T20:07:39.173Z,12.97
2023-04-16T20:10:08.666Z,12.40
2023-04-16T20:12:38.065Z,11.50
2023-04-16T20:15:09.658Z,13.07
2023-04-16T20:17:38.856Z,12.87
2023-04-16T20:20:10.304Z,11.67
2023-04-16T20:22:39.160Z,13.03
2023-04-16T20:25:09.081Z,12.93
2023-04-16T20:27:37.912Z,13.27
2023-04-16T20:30:09.089Z,14.47
2023-04-16T20:32:37.925Z,13.83
2023-04-16T20:35:10.587Z,13.30
2023-04-16T20:37:39.874Z,15.23
2023-04-16T20:40:11.033Z,14.90
2023-04-16T20:42:40.952Z,14.07
2023-04-16T20:45:12.000Z,12.87
2023-04-16T20:47:40.791Z,12.67
2023-04-16T20:50:11.186Z,13.80
2023-04-16T20:52:39.781Z,14.83
2023-04-16T20:55:09.792Z,14.57
2023-04-16T20:57:38.704Z,13.03
2023-04-16T21:00:12.064Z,13.70
2023-04-16T21:02:41.168Z,15.43
2023-04-16T21:05:14.290Z,15.50
2023-04-16T21:07:43.065Z,13.80
2023-04-16T21:10:12.266Z,14.43
2023-04-16T21:12:41.256Z,13.43
2023-04-16T21:15:12.101Z,14.13
2023-04-16T21:17:40.911Z,13.87
2023-04-16T21:20:13.717Z,14.23
2023-04-16T21:22:42.566Z,13.57
2023-04-16T21:25:11.860Z,13.50
2023-04-16T21:27:40.358Z,14.93
2023-04-16T21:30:12.085Z,14.03
2023-04-16T21:32:40.880Z,13.47
2023-04-16T21:35:10.580Z,14.20
2023-04-16T21:37:39.161Z,14.40
2023-04-16T21:40:08.775Z,15.07
2023-04-16T21:42:39.775Z,13.47
2023-04-16T21:45:09.782Z,13.53
2023-04-16T21:47:39.752Z,14.13
2023-04-16T21:50:09.581Z,14.70
2023-04-16T21:52:40.701Z,14.13
2023-04-16T21:55:10.745Z,13.90
2023-04-16T21:57:39.313Z,13.63
2023-04-16T22:00:13.649Z,14.23
2023-04-16T22:02:44.210Z,13.43
2023-04-16T22:05:13.095Z,13.33
2023-04-16T22:07:41.833Z,14.30
2023-04-16T22:10:12.946Z,14.00
2023-04-16T22:12:45.022Z,12.73
2023-04-16T22:15:14.592Z,13.37
2023-04-16T22:17:45.664Z,13.10
2023-04-16T22:20:14.635Z,13.73
2023-04-16T22:22:44.030Z,14.67
2023-04-16T22:25:12.893Z,14.50
2023-04-16T22:27:41.580Z,13.87
2023-04-16T22:30:11.159Z,13.67
2023-04-16T22:32:39.796Z,13.00
2023-04-16T22:35:10.737Z,14.10
2023-04-16T22:37:39.630Z,14.30
2023-04-16T22:40:10.856Z,14.40
2023-04-16T22:42:39.629Z,14.50
2023-04-16T22:45:09.413Z,13.80
2023-04-16T22:47:38.410Z,13.30
2023-04-16T22:50:10.840Z,13.80
2023-04-16T22:52:39.833Z,13.63
2023-04-16T22:55:09.368Z,14.07
2023-04-16T22:57:37.986Z,15.20
2023-04-16T23:00:11.406Z,14.60
2023-04-16T23:02:40.090Z,13.53
2023-04-16T23:05:10.784Z,14.80
2023-04-16T23:07:39.332Z,14.40
2023-04-16T23:10:09.091Z,15.17
2023-04-16T23:12:38.415Z,14.13
2023-04-16T23:15:08.852Z,13.60
2023-04-16T23:17:38.028Z,14.83
2023-04-16T23:20:10.061Z,14.40
2023-04-16T23:22:40.041Z,14.43
2023-04-16T23:25:09.860Z,15.17
2023-04-16T23:27:39.093Z,13.87
2023-04-16T23:30:08.821Z,15.30
2023-04-16T23:32:37.589Z,15.20
2023-04-16T23:35:07.019Z,16.33
2023-04-16T23:37:35.721Z,15.33
2023-04-16T23:40:06.745Z,15.60
2023-04-16T23:42:35.310Z,15.97
2023-04-16T23:45:03.833Z,16.37
2023-04-16T23:47:32.412Z,16.27
2023-04-16T23:50:02.313Z,14.87
2023-04-16T23:52:31.314Z,15.87
2023-04-16T23:55:00.183Z,15.30
2023-04-16T23:57:30.507Z,15.67
2023-04-16T23:59:59.194Z,15.60
